KSGU/SGU METAR and TAF weather

Enter ICAO airport designator
Station Type Date Time Source
KSGU METAR 2019/08/26 06:56 UTC NOAA

KSGU 260656Z AUTO 15004KT 10SM CLR 29/05 A2992 RMK AO2 SLP089 T02890050 403830217


Station Type Date Time Source
KSGU Decoded METAR 2019/08/26 06:56 UTC NOAA

Station name not available
Aug 26, 2019 - 02:56 AM EDT / 2019.08.26 0656 UTC
Wind: from the SSE (150 degrees) at 5 MPH (4 KT):0
Visibility: 10 mile(s):0
Sky conditions: clear
Temperature: 84.0 F (28.9 C)
Dew Point: 41.0 F (5.0 C)
Relative Humidity: 21%
Pressure (altimeter): 29.92 in. Hg (1013 hPa)
ob: KSGU 260656Z AUTO 15004KT 10SM CLR 29/05 A2992 RMK AO2 SLP089 T02890050 403830217
cycle: 7

Station Type Date Time Source
KSGU TAF 2019/08/26 06:22 UTC NOAA

TAF KSGU 260520Z 2606/2706 12005KT P6SM SKC
FM261900 27008KT P6SM SKC
FM270300 06008KT P6SM SKC

Example: see airport list